sensor_id;sensor_type;location;lat;lon;timestamp;P1;durP1;ratioP1;P2;durP2;ratioP2
1020;SDS011;499;42.648;23.270;2023-12-20T00:00:18;4.63;;;2.83;;
1020;SDS011;499;42.648;23.270;2023-12-20T00:02:49;6.60;;;4.82;;
1020;SDS011;499;42.648;23.270;2023-12-20T00:05:19;6.55;;;4.55;;
1020;SDS011;499;42.648;23.270;2023-12-20T00:07:46;6.07;;;4.78;;
1020;SDS011;499;42.648;23.270;2023-12-20T00:10:14;9.68;;;6.65;;
1020;SDS011;499;42.648;23.270;2023-12-20T00:12:42;7.22;;;4.75;;
1020;SDS011;499;42.648;23.270;2023-12-20T00:15:09;5.50;;;4.35;;
1020;SDS011;499;42.648;23.270;2023-12-20T00:17:36;5.47;;;3.75;;
1020;SDS011;499;42.648;23.270;2023-12-20T00:20:07;3.50;;;3.20;;
1020;SDS011;499;42.648;23.270;2023-12-20T00:22:40;4.50;;;4.05;;
1020;SDS011;499;42.648;23.270;2023-12-20T00:25:12;7.00;;;6.18;;
1020;SDS011;499;42.648;23.270;2023-12-20T00:27:42;10.95;;;6.85;;
1020;SDS011;499;42.648;23.270;2023-12-20T00:30:09;5.90;;;4.68;;
1020;SDS011;499;42.648;23.270;2023-12-20T00:32:38;9.07;;;6.03;;
1020;SDS011;499;42.648;23.270;2023-12-20T00:35:12;16.30;;;9.90;;
1020;SDS011;499;42.648;23.270;2023-12-20T00:37:39;11.48;;;8.38;;
1020;SDS011;499;42.648;23.270;2023-12-20T00:40:07;9.50;;;7.85;;
1020;SDS011;499;42.648;23.270;2023-12-20T00:42:35;14.52;;;8.32;;
1020;SDS011;499;42.648;23.270;2023-12-20T00:45:02;5.53;;;4.10;;
1020;SDS011;499;42.648;23.270;2023-12-20T00:47:30;4.93;;;3.80;;
1020;SDS011;499;42.648;23.270;2023-12-20T00:50:00;5.70;;;3.67;;
1020;SDS011;499;42.648;23.270;2023-12-20T00:52:29;5.32;;;4.78;;
1020;SDS011;499;42.648;23.270;2023-12-20T00:54:56;3.85;;;2.95;;
1020;SDS011;499;42.648;23.270;2023-12-20T00:57:23;2.40;;;2.20;;
1020;SDS011;499;42.648;23.270;2023-12-20T01:00:04;3.33;;;2.67;;
1020;SDS011;499;42.648;23.270;2023-12-20T01:02:32;6.90;;;4.57;;
1020;SDS011;499;42.648;23.270;2023-12-20T01:04:59;3.67;;;2.90;;
1020;SDS011;499;42.648;23.270;2023-12-20T01:07:26;4.18;;;3.70;;
1020;SDS011;499;42.648;23.270;2023-12-20T01:09:55;3.70;;;3.40;;
1020;SDS011;499;42.648;23.270;2023-12-20T01:12:22;3.83;;;3.03;;
1020;SDS011;499;42.648;23.270;2023-12-20T01:14:49;8.38;;;4.90;;
1020;SDS011;499;42.648;23.270;2023-12-20T01:17:16;6.63;;;5.10;;
1020;SDS011;499;42.648;23.270;2023-12-20T01:19:56;8.20;;;4.88;;
1020;SDS011;499;42.648;23.270;2023-12-20T01:22:23;7.13;;;4.88;;
1020;SDS011;499;42.648;23.270;2023-12-20T01:24:50;12.48;;;8.38;;
1020;SDS011;499;42.648;23.270;2023-12-20T01:27:22;8.60;;;6.30;;
1020;SDS011;499;42.648;23.270;2023-12-20T01:29:53;9.25;;;6.50;;
1020;SDS011;499;42.648;23.270;2023-12-20T01:32:23;11.10;;;8.88;;
1020;SDS011;499;42.648;23.270;2023-12-20T01:35:11;11.88;;;8.27;;
1020;SDS011;499;42.648;23.270;2023-12-20T01:37:39;11.98;;;8.70;;
1020;SDS011;499;42.648;23.270;2023-12-20T01:40:08;10.57;;;7.07;;
1020;SDS011;499;42.648;23.270;2023-12-20T01:42:41;17.77;;;13.07;;
1020;SDS011;499;42.648;23.270;2023-12-20T01:45:09;11.82;;;8.80;;
1020;SDS011;499;42.648;23.270;2023-12-20T01:47:36;9.77;;;7.10;;
1020;SDS011;499;42.648;23.270;2023-12-20T01:50:03;5.20;;;4.35;;
1020;SDS011;499;42.648;23.270;2023-12-20T01:52:33;4.75;;;3.55;;
1020;SDS011;499;42.648;23.270;2023-12-20T01:55:03;5.55;;;5.03;;
1020;SDS011;499;42.648;23.270;2023-12-20T01:57:38;4.65;;;4.00;;
1020;SDS011;499;42.648;23.270;2023-12-20T02:00:08;3.90;;;3.60;;
1020;SDS011;499;42.648;23.270;2023-12-20T02:02:38;3.95;;;3.63;;
1020;SDS011;499;42.648;23.270;2023-12-20T02:05:10;4.45;;;4.03;;
1020;SDS011;499;42.648;23.270;2023-12-20T02:07:44;7.75;;;5.20;;
1020;SDS011;499;42.648;23.270;2023-12-20T02:10:16;6.38;;;5.70;;
1020;SDS011;499;42.648;23.270;2023-12-20T02:12:49;4.47;;;3.50;;
1020;SDS011;499;42.648;23.270;2023-12-20T02:15:39;6.18;;;3.65;;
1020;SDS011;499;42.648;23.270;2023-12-20T02:18:09;3.33;;;3.00;;
1020;SDS011;499;42.648;23.270;2023-12-20T02:20:40;5.97;;;3.95;;
1020;SDS011;499;42.648;23.270;2023-12-20T02:23:19;5.97;;;3.95;;
1020;SDS011;499;42.648;23.270;2023-12-20T02:26:09;4.63;;;3.17;;
1020;SDS011;499;42.648;23.270;2023-12-20T02:28:38;3.95;;;3.08;;
1020;SDS011;499;42.648;23.270;2023-12-20T02:31:06;3.10;;;2.80;;
1020;SDS011;499;42.648;23.270;2023-12-20T02:33:33;7.70;;;3.90;;
1020;SDS011;499;42.648;23.270;2023-12-20T02:36:00;5.82;;;2.90;;
1020;SDS011;499;42.648;23.270;2023-12-20T02:38:35;3.25;;;2.95;;
1020;SDS011;499;42.648;23.270;2023-12-20T02:41:03;4.63;;;3.20;;
1020;SDS011;499;42.648;23.270;2023-12-20T02:43:30;4.18;;;3.47;;
1020;SDS011;499;42.648;23.270;2023-12-20T02:45:57;3.50;;;2.85;;
1020;SDS011;499;42.648;23.270;2023-12-20T02:48:24;3.55;;;2.70;;
1020;SDS011;499;42.648;23.270;2023-12-20T02:50:51;3.25;;;2.90;;
1020;SDS011;499;42.648;23.270;2023-12-20T02:53:19;3.92;;;2.80;;
1020;SDS011;499;42.648;23.270;2023-12-20T02:55:47;4.07;;;3.75;;
1020;SDS011;499;42.648;23.270;2023-12-20T02:58:14;6.80;;;4.63;;
1020;SDS011;499;42.648;23.270;2023-12-20T03:00:43;4.60;;;3.85;;
1020;SDS011;499;42.648;23.270;2023-12-20T03:03:10;3.72;;;3.25;;
1020;SDS011;499;42.648;23.270;2023-12-20T03:05:38;5.57;;;4.10;;
1020;SDS011;499;42.648;23.270;2023-12-20T03:08:05;7.72;;;6.05;;
1020;SDS011;499;42.648;23.270;2023-12-20T03:10:32;4.43;;;4.03;;
1020;SDS011;499;42.648;23.270;2023-12-20T03:13:01;14.63;;;9.18;;
1020;SDS011;499;42.648;23.270;2023-12-20T03:15:28;8.55;;;5.50;;
1020;SDS011;499;42.648;23.270;2023-12-20T03:17:55;15.05;;;9.68;;
1020;SDS011;499;42.648;23.270;2023-12-20T03:20:24;39.53;;;20.92;;
1020;SDS011;499;42.648;23.270;2023-12-20T03:22:53;21.13;;;11.25;;
1020;SDS011;499;42.648;23.270;2023-12-20T03:25:22;46.60;;;21.23;;
1020;SDS011;499;42.648;23.270;2023-12-20T03:27:49;15.50;;;9.20;;
1020;SDS011;499;42.648;23.270;2023-12-20T03:30:21;5.82;;;4.78;;
1020;SDS011;499;42.648;23.270;2023-12-20T03:32:48;15.75;;;8.25;;
1020;SDS011;499;42.648;23.270;2023-12-20T03:35:22;13.13;;;9.90;;
1020;SDS011;499;42.648;23.270;2023-12-20T03:37:49;9.20;;;4.50;;
1020;SDS011;499;42.648;23.270;2023-12-20T03:40:17;47.25;;;24.15;;
1020;SDS011;499;42.648;23.270;2023-12-20T03:42:44;20.88;;;10.75;;
1020;SDS011;499;42.648;23.270;2023-12-20T03:45:11;24.10;;;13.80;;
1020;SDS011;499;42.648;23.270;2023-12-20T03:47:41;6.30;;;4.72;;
1020;SDS011;499;42.648;23.270;2023-12-20T03:50:12;11.30;;;7.05;;
1020;SDS011;499;42.648;23.270;2023-12-20T03:52:48;4.25;;;2.92;;
1020;SDS011;499;42.648;23.270;2023-12-20T03:55:17;4.18;;;2.80;;
1020;SDS011;499;42.648;23.270;2023-12-20T03:57:44;7.45;;;5.80;;
1020;SDS011;499;42.648;23.270;2023-12-20T04:00:19;3.95;;;3.10;;
1020;SDS011;499;42.648;23.270;2023-12-20T04:03:14;9.25;;;5.85;;
1020;SDS011;499;42.648;23.270;2023-12-20T04:05:42;21.23;;;11.43;;
1020;SDS011;499;42.648;23.270;2023-12-20T04:08:40;10.93;;;7.25;;
1020;SDS011;499;42.648;23.270;2023-12-20T04:11:08;16.02;;;9.50;;
1020;SDS011;499;42.648;23.270;2023-12-20T04:13:47;12.40;;;7.88;;
1020;SDS011;499;42.648;23.270;2023-12-20T04:16:14;6.40;;;5.03;;
1020;SDS011;499;42.648;23.270;2023-12-20T04:18:42;5.85;;;4.85;;
1020;SDS011;499;42.648;23.270;2023-12-20T04:21:10;7.15;;;4.32;;
1020;SDS011;499;42.648;23.270;2023-12-20T04:23:47;6.63;;;5.60;;
1020;SDS011;499;42.648;23.270;2023-12-20T04:26:34;8.40;;;6.50;;
1020;SDS011;499;42.648;23.270;2023-12-20T04:29:04;7.13;;;5.93;;
1020;SDS011;499;42.648;23.270;2023-12-20T04:31:42;4.03;;;3.72;;
1020;SDS011;499;42.648;23.270;2023-12-20T04:34:11;5.10;;;4.60;;
1020;SDS011;499;42.648;23.270;2023-12-20T04:36:38;5.32;;;4.65;;
1020;SDS011;499;42.648;23.270;2023-12-20T04:39:16;8.00;;;6.80;;
1020;SDS011;499;42.648;23.270;2023-12-20T04:41:50;5.45;;;4.80;;
1020;SDS011;499;42.648;23.270;2023-12-20T04:44:33;5.22;;;4.05;;
1020;SDS011;499;42.648;23.270;2023-12-20T04:47:10;6.88;;;5.55;;
1020;SDS011;499;42.648;23.270;2023-12-20T04:50:14;8.43;;;7.38;;
1020;SDS011;499;42.648;23.270;2023-12-20T04:53:09;6.35;;;5.57;;
1020;SDS011;499;42.648;23.270;2023-12-20T04:55:56;6.70;;;5.25;;
1020;SDS011;499;42.648;23.270;2023-12-20T04:58:31;5.43;;;4.55;;
1020;SDS011;499;42.648;23.270;2023-12-20T05:01:20;9.10;;;5.82;;
1020;SDS011;499;42.648;23.270;2023-12-20T05:03:54;12.00;;;9.40;;
1020;SDS011;499;42.648;23.270;2023-12-20T05:06:33;11.93;;;10.02;;
1020;SDS011;499;42.648;23.270;2023-12-20T05:09:10;15.70;;;8.65;;
1020;SDS011;499;42.648;23.270;2023-12-20T05:11:53;8.68;;;7.03;;
1020;SDS011;499;42.648;23.270;2023-12-20T05:14:31;18.52;;;12.98;;
1020;SDS011;499;42.648;23.270;2023-12-20T05:17:10;14.52;;;11.05;;
1020;SDS011;499;42.648;23.270;2023-12-20T05:19:46;21.85;;;16.05;;
1020;SDS011;499;42.648;23.270;2023-12-20T05:22:17;14.50;;;10.27;;
1020;SDS011;499;42.648;23.270;2023-12-20T05:24:46;15.30;;;10.55;;
1020;SDS011;499;42.648;23.270;2023-12-20T05:27:21;11.20;;;7.97;;
1020;SDS011;499;42.648;23.270;2023-12-20T05:29:51;10.90;;;7.93;;
1020;SDS011;499;42.648;23.270;2023-12-20T05:32:31;11.02;;;7.75;;
1020;SDS011;499;42.648;23.270;2023-12-20T05:35:02;10.88;;;9.27;;
1020;SDS011;499;42.648;23.270;2023-12-20T05:37:51;9.40;;;7.75;;
1020;SDS011;499;42.648;23.270;2023-12-20T05:40:39;11.18;;;8.15;;
1020;SDS011;499;42.648;23.270;2023-12-20T05:43:07;9.65;;;8.38;;
1020;SDS011;499;42.648;23.270;2023-12-20T05:45:42;11.77;;;8.73;;
1020;SDS011;499;42.648;23.270;2023-12-20T05:48:09;11.98;;;10.48;;
1020;SDS011;499;42.648;23.270;2023-12-20T05:50:42;29.08;;;16.95;;
1020;SDS011;499;42.648;23.270;2023-12-20T05:54:23;11.63;;;9.88;;
1020;SDS011;499;42.648;23.270;2023-12-20T05:57:02;19.67;;;13.63;;
1020;SDS011;499;42.648;23.270;2023-12-20T06:00:03;16.98;;;12.13;;
1020;SDS011;499;42.648;23.270;2023-12-20T06:02:31;28.13;;;19.40;;
1020;SDS011;499;42.648;23.270;2023-12-20T06:05:01;27.65;;;16.17;;
1020;SDS011;499;42.648;23.270;2023-12-20T06:07:32;24.63;;;17.92;;
1020;SDS011;499;42.648;23.270;2023-12-20T06:10:03;22.63;;;16.88;;
1020;SDS011;499;42.648;23.270;2023-12-20T06:12:41;23.92;;;17.90;;
1020;SDS011;499;42.648;23.270;2023-12-20T06:15:08;30.98;;;18.85;;
1020;SDS011;499;42.648;23.270;2023-12-20T06:17:36;22.33;;;15.43;;
1020;SDS011;499;42.648;23.270;2023-12-20T06:20:04;26.20;;;16.08;;
1020;SDS011;499;42.648;23.270;2023-12-20T06:22:34;32.83;;;14.23;;
1020;SDS011;499;42.648;23.270;2023-12-20T06:25:06;13.00;;;11.48;;
1020;SDS011;499;42.648;23.270;2023-12-20T06:27:34;18.63;;;10.38;;
1020;SDS011;499;42.648;23.270;2023-12-20T06:30:02;26.60;;;17.88;;
1020;SDS011;499;42.648;23.270;2023-12-20T06:32:44;93.90;;;54.63;;
1020;SDS011;499;42.648;23.270;2023-12-20T06:35:13;31.25;;;23.27;;
1020;SDS011;499;42.648;23.270;2023-12-20T06:37:45;27.92;;;19.73;;
1020;SDS011;499;42.648;23.270;2023-12-20T06:40:16;31.38;;;23.42;;
1020;SDS011;499;42.648;23.270;2023-12-20T06:43:00;26.38;;;19.90;;
1020;SDS011;499;42.648;23.270;2023-12-20T06:45:35;25.45;;;18.38;;
1020;SDS011;499;42.648;23.270;2023-12-20T06:48:12;20.88;;;14.20;;
1020;SDS011;499;42.648;23.270;2023-12-20T06:50:41;15.43;;;11.07;;
1020;SDS011;499;42.648;23.270;2023-12-20T06:53:10;16.88;;;11.65;;
1020;SDS011;499;42.648;23.270;2023-12-20T06:55:41;18.63;;;15.43;;
1020;SDS011;499;42.648;23.270;2023-12-20T06:58:14;29.02;;;19.30;;
1020;SDS011;499;42.648;23.270;2023-12-20T07:00:46;21.00;;;15.40;;
1020;SDS011;499;42.648;23.270;2023-12-20T07:03:36;41.15;;;24.80;;
1020;SDS011;499;42.648;23.270;2023-12-20T07:06:05;33.95;;;24.73;;
1020;SDS011;499;42.648;23.270;2023-12-20T07:08:34;32.53;;;22.23;;
1020;SDS011;499;42.648;23.270;2023-12-20T07:11:08;41.45;;;26.42;;
1020;SDS011;499;42.648;23.270;2023-12-20T07:13:37;26.75;;;20.92;;
1020;SDS011;499;42.648;23.270;2023-12-20T07:16:06;29.20;;;18.25;;
1020;SDS011;499;42.648;23.270;2023-12-20T07:18:34;38.17;;;25.90;;
1020;SDS011;499;42.648;23.270;2023-12-20T07:21:02;22.52;;;13.73;;
1020;SDS011;499;42.648;23.270;2023-12-20T07:23:38;22.80;;;14.52;;
1020;SDS011;499;42.648;23.270;2023-12-20T07:26:21;23.35;;;15.13;;
1020;SDS011;499;42.648;23.270;2023-12-20T07:28:48;56.83;;;33.23;;
1020;SDS011;499;42.648;23.270;2023-12-20T07:31:15;29.75;;;22.05;;
1020;SDS011;499;42.648;23.270;2023-12-20T07:33:43;22.27;;;17.87;;
1020;SDS011;499;42.648;23.270;2023-12-20T07:36:10;34.07;;;21.93;;
1020;SDS011;499;42.648;23.270;2023-12-20T07:38:37;34.60;;;22.83;;
1020;SDS011;499;42.648;23.270;2023-12-20T07:41:09;43.43;;;30.47;;
1020;SDS011;499;42.648;23.270;2023-12-20T07:43:38;45.07;;;29.40;;
1020;SDS011;499;42.648;23.270;2023-12-20T07:46:05;44.35;;;28.83;;
1020;SDS011;499;42.648;23.270;2023-12-20T07:48:40;49.72;;;37.38;;
1020;SDS011;499;42.648;23.270;2023-12-20T07:51:14;50.77;;;34.30;;
1020;SDS011;499;42.648;23.270;2023-12-20T07:53:43;48.53;;;32.75;;
1020;SDS011;499;42.648;23.270;2023-12-20T07:56:14;53.70;;;36.50;;
1020;SDS011;499;42.648;23.270;2023-12-20T07:58:46;51.53;;;37.67;;
1020;SDS011;499;42.648;23.270;2023-12-20T08:01:34;56.83;;;39.10;;
1020;SDS011;499;42.648;23.270;2023-12-20T08:04:15;79.47;;;48.43;;
1020;SDS011;499;42.648;23.270;2023-12-20T08:06:49;84.90;;;51.40;;
1020;SDS011;499;42.648;23.270;2023-12-20T08:09:23;81.63;;;50.10;;
1020;SDS011;499;42.648;23.270;2023-12-20T08:11:50;82.70;;;51.90;;
1020;SDS011;499;42.648;23.270;2023-12-20T08:14:32;84.87;;;53.30;;
1020;SDS011;499;42.648;23.270;2023-12-20T08:17:15;95.43;;;56.77;;
1020;SDS011;499;42.648;23.270;2023-12-20T08:20:23;88.33;;;54.30;;
1020;SDS011;499;42.648;23.270;2023-12-20T08:23:02;88.47;;;58.73;;
1020;SDS011;499;42.648;23.270;2023-12-20T08:25:35;90.13;;;54.80;;
1020;SDS011;499;42.648;23.270;2023-12-20T08:28:16;82.77;;;54.17;;
1020;SDS011;499;42.648;23.270;2023-12-20T08:30:47;87.30;;;53.60;;
1020;SDS011;499;42.648;23.270;2023-12-20T08:33:20;79.60;;;55.40;;
1020;SDS011;499;42.648;23.270;2023-12-20T08:35:55;87.43;;;56.70;;
1020;SDS011;499;42.648;23.270;2023-12-20T08:38:26;90.23;;;52.77;;
1020;SDS011;499;42.648;23.270;2023-12-20T08:41:17;89.27;;;55.63;;
1020;SDS011;499;42.648;23.270;2023-12-20T08:43:49;90.80;;;54.20;;
1020;SDS011;499;42.648;23.270;2023-12-20T08:49:26;95.53;;;51.70;;
1020;SDS011;499;42.648;23.270;2023-12-20T08:52:10;99.20;;;56.37;;
1020;SDS011;499;42.648;23.270;2023-12-20T08:54:43;92.40;;;55.80;;
1020;SDS011;499;42.648;23.270;2023-12-20T08:57:12;78.33;;;53.00;;
1020;SDS011;499;42.648;23.270;2023-12-20T08:59:39;102.60;;;58.80;;
1020;SDS011;499;42.648;23.270;2023-12-20T09:02:19;98.10;;;60.23;;
1020;SDS011;499;42.648;23.270;2023-12-20T09:05:03;95.30;;;56.33;;
1020;SDS011;499;42.648;23.270;2023-12-20T09:07:36;84.07;;;56.57;;
1020;SDS011;499;42.648;23.270;2023-12-20T09:10:21;80.33;;;55.93;;
1020;SDS011;499;42.648;23.270;2023-12-20T09:13:21;85.53;;;54.63;;
1020;SDS011;499;42.648;23.270;2023-12-20T09:15:53;91.47;;;55.97;;
1020;SDS011;499;42.648;23.270;2023-12-20T09:18:25;86.63;;;58.33;;
1020;SDS011;499;42.648;23.270;2023-12-20T09:20:55;95.30;;;59.60;;
1020;SDS011;499;42.648;23.270;2023-12-20T09:23:22;97.87;;;60.07;;
1020;SDS011;499;42.648;23.270;2023-12-20T09:25:51;87.60;;;54.63;;
1020;SDS011;499;42.648;23.270;2023-12-20T09:28:21;96.53;;;58.13;;
1020;SDS011;499;42.648;23.270;2023-12-20T09:30:52;100.47;;;63.17;;
1020;SDS011;499;42.648;23.270;2023-12-20T09:36:20;82.33;;;51.53;;
1020;SDS011;499;42.648;23.270;2023-12-20T09:38:49;76.97;;;53.87;;
1020;SDS011;499;42.648;23.270;2023-12-20T09:41:19;99.00;;;60.13;;
1020;SDS011;499;42.648;23.270;2023-12-20T09:43:48;90.93;;;56.97;;
1020;SDS011;499;42.648;23.270;2023-12-20T09:46:18;90.40;;;55.67;;
1020;SDS011;499;42.648;23.270;2023-12-20T09:48:57;97.53;;;61.80;;
1020;SDS011;499;42.648;23.270;2023-12-20T09:51:27;90.70;;;60.40;;
1020;SDS011;499;42.648;23.270;2023-12-20T09:53:57;80.53;;;54.83;;
1020;SDS011;499;42.648;23.270;2023-12-20T09:56:44;88.47;;;56.23;;
1020;SDS011;499;42.648;23.270;2023-12-20T09:59:11;92.90;;;59.37;;
1020;SDS011;499;42.648;23.270;2023-12-20T10:01:39;97.53;;;59.73;;
1020;SDS011;499;42.648;23.270;2023-12-20T10:04:09;102.77;;;65.23;;
1020;SDS011;499;42.648;23.270;2023-12-20T10:06:41;83.03;;;57.57;;
1020;SDS011;499;42.648;23.270;2023-12-20T10:09:11;92.20;;;55.80;;
1020;SDS011;499;42.648;23.270;2023-12-20T10:11:39;94.00;;;57.77;;
1020;SDS011;499;42.648;23.270;2023-12-20T10:14:10;90.73;;;58.17;;
1020;SDS011;499;42.648;23.270;2023-12-20T10:16:44;91.40;;;59.43;;
1020;SDS011;499;42.648;23.270;2023-12-20T10:19:18;97.13;;;63.73;;
1020;SDS011;499;42.648;23.270;2023-12-20T10:21:50;99.87;;;63.37;;
1020;SDS011;499;42.648;23.270;2023-12-20T10:24:28;89.43;;;58.23;;
1020;SDS011;499;42.648;23.270;2023-12-20T10:27:02;86.73;;;60.40;;
1020;SDS011;499;42.648;23.270;2023-12-20T10:29:33;92.43;;;61.17;;
1020;SDS011;499;42.648;23.270;2023-12-20T10:35:11;106.83;;;64.83;;
1020;SDS011;499;42.648;23.270;2023-12-20T10:37:39;96.67;;;58.00;;
1020;SDS011;499;42.648;23.270;2023-12-20T10:40:32;88.43;;;58.40;;
1020;SDS011;499;42.648;23.270;2023-12-20T10:43:04;94.35;;;60.00;;
1020;SDS011;499;42.648;23.270;2023-12-20T10:45:32;96.07;;;64.20;;
1020;SDS011;499;42.648;23.270;2023-12-20T10:48:02;100.77;;;59.87;;
1020;SDS011;499;42.648;23.270;2023-12-20T10:50:46;109.77;;;61.33;;
1020;SDS011;499;42.648;23.270;2023-12-20T10:53:37;90.03;;;58.40;;
1020;SDS011;499;42.648;23.270;2023-12-20T10:56:08;90.77;;;60.17;;
1020;SDS011;499;42.648;23.270;2023-12-20T10:58:40;122.30;;;68.20;;
1020;SDS011;499;42.648;23.270;2023-12-20T11:01:12;95.33;;;59.90;;
1020;SDS011;499;42.648;23.270;2023-12-20T11:03:43;103.03;;;63.20;;
1020;SDS011;499;42.648;23.270;2023-12-20T11:06:29;101.90;;;59.40;;
1020;SDS011;499;42.648;23.270;2023-12-20T11:09:31;103.37;;;60.77;;
1020;SDS011;499;42.648;23.270;2023-12-20T11:12:05;90.27;;;60.40;;
1020;SDS011;499;42.648;23.270;2023-12-20T11:14:46;96.93;;;57.97;;
1020;SDS011;499;42.648;23.270;2023-12-20T11:17:16;110.37;;;63.50;;
1020;SDS011;499;42.648;23.270;2023-12-20T11:22:38;100.53;;;63.30;;
1020;SDS011;499;42.648;23.270;2023-12-20T11:25:25;88.13;;;61.03;;
1020;SDS011;499;42.648;23.270;2023-12-20T11:28:52;74.60;;;53.30;;
1020;SDS011;499;42.648;23.270;2023-12-20T11:31:51;91.77;;;59.90;;
1020;SDS011;499;42.648;23.270;2023-12-20T11:34:26;82.70;;;58.83;;
1020;SDS011;499;42.648;23.270;2023-12-20T11:36:59;98.90;;;65.73;;
1020;SDS011;499;42.648;23.270;2023-12-20T11:42:36;89.30;;;59.40;;
1020;SDS011;499;42.648;23.270;2023-12-20T11:45:17;91.87;;;63.50;;
1020;SDS011;499;42.648;23.270;2023-12-20T11:47:49;91.77;;;59.33;;
1020;SDS011;499;42.648;23.270;2023-12-20T11:50:25;90.30;;;63.73;;
1020;SDS011;499;42.648;23.270;2023-12-20T11:53:02;90.53;;;60.83;;
1020;SDS011;499;42.648;23.270;2023-12-20T11:55:37;84.97;;;63.83;;
1020;SDS011;499;42.648;23.270;2023-12-20T11:58:07;85.23;;;58.80;;
1020;SDS011;499;42.648;23.270;2023-12-20T12:00:36;92.43;;;64.27;;
1020;SDS011;499;42.648;23.270;2023-12-20T12:03:10;89.93;;;62.20;;
1020;SDS011;499;42.648;23.270;2023-12-20T12:05:42;91.57;;;60.17;;
1020;SDS011;499;42.648;23.270;2023-12-20T12:08:15;96.87;;;64.43;;
1020;SDS011;499;42.648;23.270;2023-12-20T12:10:45;91.93;;;60.73;;
1020;SDS011;499;42.648;23.270;2023-12-20T12:13:16;82.23;;;61.70;;
1020;SDS011;499;42.648;23.270;2023-12-20T12:16:07;79.97;;;60.27;;
1020;SDS011;499;42.648;23.270;2023-12-20T12:18:39;94.87;;;66.10;;
1020;SDS011;499;42.648;23.270;2023-12-20T12:21:07;88.80;;;59.03;;
1020;SDS011;499;42.648;23.270;2023-12-20T12:23:35;86.53;;;57.93;;
1020;SDS011;499;42.648;23.270;2023-12-20T12:26:13;78.13;;;56.47;;
1020;SDS011;499;42.648;23.270;2023-12-20T12:28:41;82.23;;;55.17;;
1020;SDS011;499;42.648;23.270;2023-12-20T12:31:13;83.80;;;54.77;;
1020;SDS011;499;42.648;23.270;2023-12-20T12:33:43;74.30;;;52.13;;
1020;SDS011;499;42.648;23.270;2023-12-20T12:36:14;73.40;;;50.43;;
1020;SDS011;499;42.648;23.270;2023-12-20T12:38:45;71.03;;;49.90;;
1020;SDS011;499;42.648;23.270;2023-12-20T12:41:19;74.83;;;50.57;;
1020;SDS011;499;42.648;23.270;2023-12-20T12:43:49;62.13;;;45.07;;
1020;SDS011;499;42.648;23.270;2023-12-20T12:46:28;67.57;;;45.07;;
1020;SDS011;499;42.648;23.270;2023-12-20T12:48:58;74.93;;;47.07;;
1020;SDS011;499;42.648;23.270;2023-12-20T12:51:32;67.30;;;44.53;;
1020;SDS011;499;42.648;23.270;2023-12-20T12:54:39;63.20;;;43.90;;
1020;SDS011;499;42.648;23.270;2023-12-20T13:01:18;61.23;;;40.83;;
1020;SDS011;499;42.648;23.270;2023-12-20T13:04:01;68.07;;;42.60;;
1020;SDS011;499;42.648;23.270;2023-12-20T13:06:36;75.47;;;47.43;;
1020;SDS011;499;42.648;23.270;2023-12-20T13:09:08;101.77;;;50.67;;
1020;SDS011;499;42.648;23.270;2023-12-20T13:11:36;84.93;;;50.40;;
1020;SDS011;499;42.648;23.270;2023-12-20T13:14:05;88.43;;;53.80;;
1020;SDS011;499;42.648;23.270;2023-12-20T13:16:40;78.73;;;48.63;;
1020;SDS011;499;42.648;23.270;2023-12-20T13:19:17;74.77;;;48.30;;
1020;SDS011;499;42.648;23.270;2023-12-20T13:21:46;91.00;;;54.63;;
1020;SDS011;499;42.648;23.270;2023-12-20T13:24:18;91.67;;;51.00;;
1020;SDS011;499;42.648;23.270;2023-12-20T13:26:52;76.73;;;49.83;;
1020;SDS011;499;42.648;23.270;2023-12-20T13:29:25;96.13;;;53.83;;
1020;SDS011;499;42.648;23.270;2023-12-20T13:31:55;93.43;;;51.57;;
1020;SDS011;499;42.648;23.270;2023-12-20T13:34:24;86.37;;;51.83;;
1020;SDS011;499;42.648;23.270;2023-12-20T13:36:53;76.60;;;50.67;;
1020;SDS011;499;42.648;23.270;2023-12-20T13:39:22;75.67;;;45.87;;
1020;SDS011;499;42.648;23.270;2023-12-20T13:42:02;78.87;;;47.83;;
1020;SDS011;499;42.648;23.270;2023-12-20T13:44:33;72.03;;;49.37;;
1020;SDS011;499;42.648;23.270;2023-12-20T13:47:08;82.40;;;51.70;;
1020;SDS011;499;42.648;23.270;2023-12-20T13:49:45;84.47;;;49.50;;
1020;SDS011;499;42.648;23.270;2023-12-20T13:52:15;74.97;;;49.20;;
1020;SDS011;499;42.648;23.270;2023-12-20T13:54:47;78.33;;;50.60;;
1020;SDS011;499;42.648;23.270;2023-12-20T13:57:22;86.77;;;50.40;;
1020;SDS011;499;42.648;23.270;2023-12-20T14:00:03;71.13;;;45.87;;
1020;SDS011;499;42.648;23.270;2023-12-20T14:02:35;78.63;;;49.00;;
1020;SDS011;499;42.648;23.270;2023-12-20T14:05:04;93.73;;;51.47;;
1020;SDS011;499;42.648;23.270;2023-12-20T14:07:40;70.53;;;46.67;;
1020;SDS011;499;42.648;23.270;2023-12-20T14:10:15;75.90;;;46.97;;
1020;SDS011;499;42.648;23.270;2023-12-20T14:12:53;69.03;;;47.13;;
1020;SDS011;499;42.648;23.270;2023-12-20T14:15:23;100.27;;;55.83;;
1020;SDS011;499;42.648;23.270;2023-12-20T14:18:06;86.33;;;52.97;;
1020;SDS011;499;42.648;23.270;2023-12-20T14:20:36;84.10;;;53.00;;
1020;SDS011;499;42.648;23.270;2023-12-20T14:23:08;73.00;;;50.77;;
1020;SDS011;499;42.648;23.270;2023-12-20T14:25:50;71.57;;;47.70;;
1020;SDS011;499;42.648;23.270;2023-12-20T14:28:38;74.63;;;45.17;;
1020;SDS011;499;42.648;23.270;2023-12-20T14:31:18;72.80;;;42.13;;
1020;SDS011;499;42.648;23.270;2023-12-20T14:33:52;71.87;;;41.20;;
1020;SDS011;499;42.648;23.270;2023-12-20T14:36:21;78.83;;;50.40;;
1020;SDS011;499;42.648;23.270;2023-12-20T14:38:56;75.53;;;48.20;;
1020;SDS011;499;42.648;23.270;2023-12-20T14:41:43;94.20;;;52.93;;
1020;SDS011;499;42.648;23.270;2023-12-20T14:44:12;90.57;;;53.13;;
1020;SDS011;499;42.648;23.270;2023-12-20T14:46:44;90.83;;;56.80;;
1020;SDS011;499;42.648;23.270;2023-12-20T14:49:14;98.60;;;56.63;;
1020;SDS011;499;42.648;23.270;2023-12-20T14:51:43;93.43;;;55.40;;
1020;SDS011;499;42.648;23.270;2023-12-20T14:54:18;90.10;;;55.27;;
1020;SDS011;499;42.648;23.270;2023-12-20T14:56:49;78.17;;;51.17;;
1020;SDS011;499;42.648;23.270;2023-12-20T14:59:28;80.47;;;48.67;;
1020;SDS011;499;42.648;23.270;2023-12-20T15:01:56;97.20;;;55.30;;
1020;SDS011;499;42.648;23.270;2023-12-20T15:04:38;88.30;;;54.87;;
1020;SDS011;499;42.648;23.270;2023-12-20T15:07:13;93.60;;;56.50;;
1020;SDS011;499;42.648;23.270;2023-12-20T15:09:40;102.70;;;58.63;;
1020;SDS011;499;42.648;23.270;2023-12-20T15:12:11;127.70;;;67.50;;
1020;SDS011;499;42.648;23.270;2023-12-20T15:14:40;159.80;;;79.53;;
1020;SDS011;499;42.648;23.270;2023-12-20T15:17:07;147.47;;;78.40;;
1020;SDS011;499;42.648;23.270;2023-12-20T15:19:36;121.20;;;72.43;;
1020;SDS011;499;42.648;23.270;2023-12-20T15:22:04;128.17;;;75.50;;
1020;SDS011;499;42.648;23.270;2023-12-20T15:24:32;130.60;;;73.00;;
1020;SDS011;499;42.648;23.270;2023-12-20T15:27:04;123.33;;;74.33;;
1020;SDS011;499;42.648;23.270;2023-12-20T15:29:33;134.43;;;75.73;;
1020;SDS011;499;42.648;23.270;2023-12-20T15:32:15;121.63;;;65.70;;
1020;SDS011;499;42.648;23.270;2023-12-20T15:34:46;108.87;;;67.83;;
1020;SDS011;499;42.648;23.270;2023-12-20T15:37:15;117.03;;;75.13;;
1020;SDS011;499;42.648;23.270;2023-12-20T15:39:43;144.43;;;84.87;;
1020;SDS011;499;42.648;23.270;2023-12-20T15:42:20;160.33;;;94.40;;
1020;SDS011;499;42.648;23.270;2023-12-20T15:45:07;143.10;;;83.67;;
1020;SDS011;499;42.648;23.270;2023-12-20T15:47:36;131.70;;;82.67;;
1020;SDS011;499;42.648;23.270;2023-12-20T15:50:11;109.43;;;66.60;;
1020;SDS011;499;42.648;23.270;2023-12-20T15:52:42;92.03;;;59.93;;